sensor_id;sensor_type;location;lat;lon;timestamp;P1;durP1;ratioP1;P2;durP2;ratioP2
23561;SDS011;11959;49.418;8.728;2023-04-23T00:01:37;7.03;;;4.90;;
23561;SDS011;11959;49.418;8.728;2023-04-23T00:04:06;7.38;;;4.88;;
23561;SDS011;11959;49.418;8.728;2023-04-23T00:06:32;8.77;;;5.20;;
23561;SDS011;11959;49.418;8.728;2023-04-23T00:08:59;5.50;;;4.50;;
23561;SDS011;11959;49.418;8.728;2023-04-23T00:11:25;7.95;;;4.68;;
23561;SDS011;11959;49.418;8.728;2023-04-23T00:13:51;5.65;;;4.25;;
23561;SDS011;11959;49.418;8.728;2023-04-23T00:16:18;6.60;;;4.30;;
23561;SDS011;11959;49.418;8.728;2023-04-23T00:18:45;5.97;;;4.90;;
23561;SDS011;11959;49.418;8.728;2023-04-23T00:21:11;6.53;;;4.50;;
23561;SDS011;11959;49.418;8.728;2023-04-23T00:23:37;7.07;;;4.25;;
23561;SDS011;11959;49.418;8.728;2023-04-23T00:26:03;7.13;;;4.05;;
23561;SDS011;11959;49.418;8.728;2023-04-23T00:28:29;5.78;;;3.97;;
23561;SDS011;11959;49.418;8.728;2023-04-23T00:30:55;6.95;;;4.60;;
23561;SDS011;11959;49.418;8.728;2023-04-23T00:33:21;4.82;;;3.90;;
23561;SDS011;11959;49.418;8.728;2023-04-23T00:35:47;7.70;;;4.40;;
23561;SDS011;11959;49.418;8.728;2023-04-23T00:38:13;5.80;;;4.63;;
23561;SDS011;11959;49.418;8.728;2023-04-23T00:40:38;5.85;;;4.32;;
23561;SDS011;11959;49.418;8.728;2023-04-23T00:43:05;6.20;;;4.30;;
23561;SDS011;11959;49.418;8.728;2023-04-23T00:45:31;6.18;;;4.53;;
23561;SDS011;11959;49.418;8.728;2023-04-23T00:47:57;7.45;;;4.78;;
23561;SDS011;11959;49.418;8.728;2023-04-23T00:50:23;6.60;;;4.68;;
23561;SDS011;11959;49.418;8.728;2023-04-23T00:52:49;6.22;;;4.63;;
23561;SDS011;11959;49.418;8.728;2023-04-23T00:55:15;7.10;;;4.63;;
23561;SDS011;11959;49.418;8.728;2023-04-23T00:57:41;5.97;;;4.25;;
23561;SDS011;11959;49.418;8.728;2023-04-23T01:00:07;5.70;;;4.10;;
23561;SDS011;11959;49.418;8.728;2023-04-23T01:02:34;5.40;;;3.80;;
23561;SDS011;11959;49.418;8.728;2023-04-23T01:05:02;8.18;;;4.88;;
23561;SDS011;11959;49.418;8.728;2023-04-23T01:07:30;6.15;;;4.65;;
23561;SDS011;11959;49.418;8.728;2023-04-23T01:09:59;6.85;;;5.00;;
23561;SDS011;11959;49.418;8.728;2023-04-23T01:12:25;8.43;;;5.05;;
23561;SDS011;11959;49.418;8.728;2023-04-23T01:14:51;7.82;;;5.50;;
23561;SDS011;11959;49.418;8.728;2023-04-23T01:17:17;9.30;;;5.40;;
23561;SDS011;11959;49.418;8.728;2023-04-23T01:19:43;7.53;;;5.45;;
23561;SDS011;11959;49.418;8.728;2023-04-23T01:22:09;6.35;;;4.93;;
23561;SDS011;11959;49.418;8.728;2023-04-23T01:24:39;7.82;;;5.40;;
23561;SDS011;11959;49.418;8.728;2023-04-23T01:27:06;7.65;;;5.78;;
23561;SDS011;11959;49.418;8.728;2023-04-23T01:29:35;7.20;;;5.55;;
23561;SDS011;11959;49.418;8.728;2023-04-23T01:32:02;9.13;;;6.05;;
23561;SDS011;11959;49.418;8.728;2023-04-23T01:34:31;8.23;;;5.70;;
23561;SDS011;11959;49.418;8.728;2023-04-23T01:36:57;5.93;;;4.55;;
23561;SDS011;11959;49.418;8.728;2023-04-23T01:39:23;10.68;;;6.03;;
23561;SDS011;11959;49.418;8.728;2023-04-23T01:41:49;8.68;;;6.40;;
23561;SDS011;11959;49.418;8.728;2023-04-23T01:44:15;7.47;;;5.47;;
23561;SDS011;11959;49.418;8.728;2023-04-23T01:46:41;7.15;;;5.20;;
23561;SDS011;11959;49.418;8.728;2023-04-23T01:49:07;9.00;;;5.43;;
23561;SDS011;11959;49.418;8.728;2023-04-23T01:51:33;7.47;;;6.00;;
23561;SDS011;11959;49.418;8.728;2023-04-23T01:53:59;6.32;;;5.50;;
23561;SDS011;11959;49.418;8.728;2023-04-23T01:56:26;7.88;;;5.55;;
23561;SDS011;11959;49.418;8.728;2023-04-23T01:58:53;6.70;;;5.65;;
23561;SDS011;11959;49.418;8.728;2023-04-23T02:01:18;9.45;;;6.32;;
23561;SDS011;11959;49.418;8.728;2023-04-23T02:03:44;7.80;;;6.05;;
23561;SDS011;11959;49.418;8.728;2023-04-23T02:06:11;11.15;;;6.50;;
23561;SDS011;11959;49.418;8.728;2023-04-23T02:08:37;7.60;;;6.35;;
23561;SDS011;11959;49.418;8.728;2023-04-23T02:11:04;8.70;;;6.40;;
23561;SDS011;11959;49.418;8.728;2023-04-23T02:13:30;8.80;;;6.80;;
23561;SDS011;11959;49.418;8.728;2023-04-23T02:15:56;7.78;;;6.03;;
23561;SDS011;11959;49.418;8.728;2023-04-23T02:18:22;10.30;;;7.13;;
23561;SDS011;11959;49.418;8.728;2023-04-23T02:20:47;7.82;;;6.88;;
23561;SDS011;11959;49.418;8.728;2023-04-23T02:23:13;8.57;;;6.20;;
23561;SDS011;11959;49.418;8.728;2023-04-23T02:25:39;9.57;;;6.57;;
23561;SDS011;11959;49.418;8.728;2023-04-23T02:28:05;8.82;;;7.28;;
23561;SDS011;11959;49.418;8.728;2023-04-23T02:30:34;9.75;;;6.72;;
23561;SDS011;11959;49.418;8.728;2023-04-23T02:33:00;8.43;;;7.18;;
23561;SDS011;11959;49.418;8.728;2023-04-23T02:35:26;8.63;;;6.63;;
23561;SDS011;11959;49.418;8.728;2023-04-23T02:37:52;9.73;;;6.78;;
23561;SDS011;11959;49.418;8.728;2023-04-23T02:40:18;10.23;;;6.78;;
23561;SDS011;11959;49.418;8.728;2023-04-23T02:42:44;7.25;;;6.13;;
23561;SDS011;11959;49.418;8.728;2023-04-23T02:45:10;7.80;;;6.32;;
23561;SDS011;11959;49.418;8.728;2023-04-23T02:47:36;9.52;;;7.53;;
23561;SDS011;11959;49.418;8.728;2023-04-23T02:50:02;8.13;;;7.00;;
23561;SDS011;11959;49.418;8.728;2023-04-23T02:52:30;7.70;;;6.45;;
23561;SDS011;11959;49.418;8.728;2023-04-23T02:54:56;6.82;;;6.07;;
23561;SDS011;11959;49.418;8.728;2023-04-23T02:57:22;7.60;;;6.13;;
23561;SDS011;11959;49.418;8.728;2023-04-23T02:59:48;10.43;;;7.35;;
23561;SDS011;11959;49.418;8.728;2023-04-23T03:02:14;9.75;;;6.95;;
23561;SDS011;11959;49.418;8.728;2023-04-23T03:04:40;10.73;;;7.75;;
23561;SDS011;11959;49.418;8.728;2023-04-23T03:07:06;8.30;;;6.68;;
23561;SDS011;11959;49.418;8.728;2023-04-23T03:09:32;9.50;;;7.55;;
23561;SDS011;11959;49.418;8.728;2023-04-23T03:11:57;10.23;;;7.22;;
23561;SDS011;11959;49.418;8.728;2023-04-23T03:14:23;7.50;;;6.35;;
23561;SDS011;11959;49.418;8.728;2023-04-23T03:16:49;6.70;;;5.85;;
23561;SDS011;11959;49.418;8.728;2023-04-23T03:19:15;8.63;;;6.32;;
23561;SDS011;11959;49.418;8.728;2023-04-23T03:21:40;7.05;;;6.25;;
23561;SDS011;11959;49.418;8.728;2023-04-23T03:24:06;7.35;;;5.55;;
23561;SDS011;11959;49.418;8.728;2023-04-23T03:26:32;10.00;;;6.35;;
23561;SDS011;11959;49.418;8.728;2023-04-23T03:28:58;6.47;;;5.55;;
23561;SDS011;11959;49.418;8.728;2023-04-23T03:31:24;9.15;;;5.80;;
23561;SDS011;11959;49.418;8.728;2023-04-23T03:33:50;6.20;;;5.25;;
23561;SDS011;11959;49.418;8.728;2023-04-23T03:36:16;7.65;;;5.43;;
23561;SDS011;11959;49.418;8.728;2023-04-23T03:38:42;8.40;;;5.53;;
23561;SDS011;11959;49.418;8.728;2023-04-23T03:41:07;6.47;;;5.43;;
23561;SDS011;11959;49.418;8.728;2023-04-23T03:43:33;5.93;;;5.32;;
23561;SDS011;11959;49.418;8.728;2023-04-23T03:45:59;6.85;;;6.10;;
23561;SDS011;11959;49.418;8.728;2023-04-23T03:48:24;6.53;;;5.47;;
23561;SDS011;11959;49.418;8.728;2023-04-23T03:50:51;5.20;;;4.70;;
23561;SDS011;11959;49.418;8.728;2023-04-23T03:53:16;6.53;;;5.40;;
23561;SDS011;11959;49.418;8.728;2023-04-23T03:55:42;6.15;;;5.13;;
23561;SDS011;11959;49.418;8.728;2023-04-23T03:58:08;7.68;;;5.13;;
23561;SDS011;11959;49.418;8.728;2023-04-23T04:00:33;6.68;;;5.25;;
23561;SDS011;11959;49.418;8.728;2023-04-23T04:03:00;6.45;;;4.78;;
23561;SDS011;11959;49.418;8.728;2023-04-23T04:05:26;5.35;;;4.22;;
23561;SDS011;11959;49.418;8.728;2023-04-23T04:07:52;4.70;;;3.92;;
23561;SDS011;11959;49.418;8.728;2023-04-23T04:10:18;3.97;;;3.53;;
23561;SDS011;11959;49.418;8.728;2023-04-23T04:12:44;4.30;;;3.72;;
23561;SDS011;11959;49.418;8.728;2023-04-23T04:15:11;4.60;;;4.15;;
23561;SDS011;11959;49.418;8.728;2023-04-23T04:17:41;4.50;;;3.60;;
23561;SDS011;11959;49.418;8.728;2023-04-23T04:20:09;4.30;;;3.83;;
23561;SDS011;11959;49.418;8.728;2023-04-23T04:22:35;4.60;;;3.83;;
23561;SDS011;11959;49.418;8.728;2023-04-23T04:25:01;5.82;;;4.22;;
23561;SDS011;11959;49.418;8.728;2023-04-23T04:27:27;4.32;;;3.53;;
23561;SDS011;11959;49.418;8.728;2023-04-23T04:29:53;4.55;;;3.50;;
23561;SDS011;11959;49.418;8.728;2023-04-23T04:32:18;4.13;;;3.30;;
23561;SDS011;11959;49.418;8.728;2023-04-23T04:34:46;7.65;;;4.00;;
23561;SDS011;11959;49.418;8.728;2023-04-23T04:37:11;5.03;;;3.65;;
23561;SDS011;11959;49.418;8.728;2023-04-23T04:39:37;4.97;;;3.55;;
23561;SDS011;11959;49.418;8.728;2023-04-23T04:42:03;3.92;;;3.13;;
23561;SDS011;11959;49.418;8.728;2023-04-23T04:44:30;5.35;;;3.63;;
23561;SDS011;11959;49.418;8.728;2023-04-23T04:46:56;4.07;;;3.63;;
23561;SDS011;11959;49.418;8.728;2023-04-23T04:49:21;5.22;;;3.45;;
23561;SDS011;11959;49.418;8.728;2023-04-23T04:51:47;4.30;;;3.30;;
23561;SDS011;11959;49.418;8.728;2023-04-23T04:54:13;4.07;;;3.67;;
23561;SDS011;11959;49.418;8.728;2023-04-23T04:56:39;6.38;;;3.85;;
23561;SDS011;11959;49.418;8.728;2023-04-23T04:59:04;4.43;;;3.70;;
23561;SDS011;11959;49.418;8.728;2023-04-23T05:01:30;4.15;;;3.75;;
23561;SDS011;11959;49.418;8.728;2023-04-23T05:03:57;4.68;;;4.00;;
23561;SDS011;11959;49.418;8.728;2023-04-23T05:06:23;4.45;;;4.00;;
23561;SDS011;11959;49.418;8.728;2023-04-23T05:08:49;5.57;;;3.97;;
23561;SDS011;11959;49.418;8.728;2023-04-23T05:11:15;5.07;;;4.47;;
23561;SDS011;11959;49.418;8.728;2023-04-23T05:13:45;6.65;;;5.00;;
23561;SDS011;11959;49.418;8.728;2023-04-23T05:16:12;6.70;;;5.20;;
23561;SDS011;11959;49.418;8.728;2023-04-23T05:18:39;7.22;;;5.95;;
23561;SDS011;11959;49.418;8.728;2023-04-23T05:21:05;6.43;;;5.07;;
23561;SDS011;11959;49.418;8.728;2023-04-23T05:23:32;5.57;;;4.72;;
23561;SDS011;11959;49.418;8.728;2023-04-23T05:25:58;6.60;;;4.97;;
23561;SDS011;11959;49.418;8.728;2023-04-23T05:28:24;9.02;;;5.85;;
23561;SDS011;11959;49.418;8.728;2023-04-23T05:30:50;7.40;;;6.15;;
23561;SDS011;11959;49.418;8.728;2023-04-23T05:33:16;9.70;;;6.90;;
23561;SDS011;11959;49.418;8.728;2023-04-23T05:35:42;9.48;;;7.00;;
23561;SDS011;11959;49.418;8.728;2023-04-23T05:38:07;9.40;;;7.25;;
23561;SDS011;11959;49.418;8.728;2023-04-23T05:40:33;9.23;;;7.07;;
23561;SDS011;11959;49.418;8.728;2023-04-23T05:42:59;9.85;;;7.55;;
23561;SDS011;11959;49.418;8.728;2023-04-23T05:45:25;11.68;;;7.43;;
23561;SDS011;11959;49.418;8.728;2023-04-23T05:47:51;8.93;;;7.05;;
23561;SDS011;11959;49.418;8.728;2023-04-23T05:50:17;8.98;;;6.82;;
23561;SDS011;11959;49.418;8.728;2023-04-23T05:52:43;8.05;;;6.63;;
23561;SDS011;11959;49.418;8.728;2023-04-23T05:55:09;8.88;;;7.38;;
23561;SDS011;11959;49.418;8.728;2023-04-23T05:57:35;8.45;;;7.18;;
23561;SDS011;11959;49.418;8.728;2023-04-23T06:00:02;8.50;;;6.00;;
23561;SDS011;11959;49.418;8.728;2023-04-23T06:02:30;8.73;;;6.55;;
23561;SDS011;11959;49.418;8.728;2023-04-23T06:04:57;8.13;;;6.30;;
23561;SDS011;11959;49.418;8.728;2023-04-23T06:07:23;8.40;;;6.57;;
23561;SDS011;11959;49.418;8.728;2023-04-23T06:09:49;8.18;;;6.40;;
23561;SDS011;11959;49.418;8.728;2023-04-23T06:12:14;10.05;;;6.63;;
23561;SDS011;11959;49.418;8.728;2023-04-23T06:14:40;6.90;;;5.22;;
23561;SDS011;11959;49.418;8.728;2023-04-23T06:17:06;7.20;;;5.20;;
23561;SDS011;11959;49.418;8.728;2023-04-23T06:19:31;8.05;;;5.65;;
23561;SDS011;11959;49.418;8.728;2023-04-23T06:21:57;8.18;;;5.30;;
23561;SDS011;11959;49.418;8.728;2023-04-23T06:24:23;6.10;;;5.50;;
23561;SDS011;11959;49.418;8.728;2023-04-23T06:26:49;7.85;;;5.68;;
23561;SDS011;11959;49.418;8.728;2023-04-23T06:29:14;6.40;;;4.90;;
23561;SDS011;11959;49.418;8.728;2023-04-23T06:31:40;6.35;;;4.93;;
23561;SDS011;11959;49.418;8.728;2023-04-23T06:34:06;6.07;;;4.97;;
23561;SDS011;11959;49.418;8.728;2023-04-23T06:36:31;7.07;;;5.18;;
23561;SDS011;11959;49.418;8.728;2023-04-23T06:38:57;5.47;;;4.68;;
23561;SDS011;11959;49.418;8.728;2023-04-23T06:41:23;6.38;;;4.70;;
23561;SDS011;11959;49.418;8.728;2023-04-23T06:43:49;6.25;;;5.32;;
23561;SDS011;11959;49.418;8.728;2023-04-23T06:46:14;5.85;;;5.13;;
23561;SDS011;11959;49.418;8.728;2023-04-23T06:48:40;4.57;;;4.07;;
23561;SDS011;11959;49.418;8.728;2023-04-23T06:51:05;4.78;;;4.20;;
23561;SDS011;11959;49.418;8.728;2023-04-23T06:53:31;4.85;;;4.00;;
23561;SDS011;11959;49.418;8.728;2023-04-23T06:55:57;5.53;;;4.10;;
23561;SDS011;11959;49.418;8.728;2023-04-23T06:58:22;6.28;;;4.13;;
23561;SDS011;11959;49.418;8.728;2023-04-23T07:00:55;4.20;;;3.80;;
23561;SDS011;11959;49.418;8.728;2023-04-23T07:03:21;4.10;;;3.38;;
23561;SDS011;11959;49.418;8.728;2023-04-23T07:05:47;3.53;;;3.10;;
23561;SDS011;11959;49.418;8.728;2023-04-23T07:08:13;4.97;;;3.40;;
23561;SDS011;11959;49.418;8.728;2023-04-23T07:10:38;4.32;;;3.60;;
23561;SDS011;11959;49.418;8.728;2023-04-23T07:13:04;3.55;;;3.25;;
23561;SDS011;11959;49.418;8.728;2023-04-23T07:15:30;4.65;;;3.53;;
23561;SDS011;11959;49.418;8.728;2023-04-23T07:17:55;5.43;;;3.90;;
23561;SDS011;11959;49.418;8.728;2023-04-23T07:20:21;4.93;;;3.92;;
23561;SDS011;11959;49.418;8.728;2023-04-23T07:22:46;4.22;;;3.83;;
23561;SDS011;11959;49.418;8.728;2023-04-23T07:25:13;4.68;;;3.85;;
23561;SDS011;11959;49.418;8.728;2023-04-23T07:27:39;6.85;;;4.32;;
23561;SDS011;11959;49.418;8.728;2023-04-23T07:30:05;6.03;;;4.05;;
23561;SDS011;11959;49.418;8.728;2023-04-23T07:32:32;6.57;;;4.63;;
23561;SDS011;11959;49.418;8.728;2023-04-23T07:34:57;6.38;;;4.97;;
23561;SDS011;11959;49.418;8.728;2023-04-23T07:37:23;5.93;;;4.07;;
23561;SDS011;11959;49.418;8.728;2023-04-23T07:39:48;4.65;;;4.20;;
23561;SDS011;11959;49.418;8.728;2023-04-23T07:42:14;4.60;;;4.05;;
23561;SDS011;11959;49.418;8.728;2023-04-23T07:44:40;6.35;;;5.03;;
23561;SDS011;11959;49.418;8.728;2023-04-23T07:47:05;8.48;;;4.53;;
23561;SDS011;11959;49.418;8.728;2023-04-23T07:49:31;6.78;;;4.30;;
23561;SDS011;11959;49.418;8.728;2023-04-23T07:51:57;4.80;;;4.05;;
23561;SDS011;11959;49.418;8.728;2023-04-23T07:54:22;5.55;;;4.00;;
23561;SDS011;11959;49.418;8.728;2023-04-23T07:56:48;7.85;;;4.75;;
23561;SDS011;11959;49.418;8.728;2023-04-23T07:59:14;4.53;;;3.60;;
23561;SDS011;11959;49.418;8.728;2023-04-23T08:01:40;6.50;;;4.90;;
23561;SDS011;11959;49.418;8.728;2023-04-23T08:04:06;5.07;;;4.50;;
23561;SDS011;11959;49.418;8.728;2023-04-23T08:06:31;5.25;;;4.28;;
23561;SDS011;11959;49.418;8.728;2023-04-23T08:08:59;6.70;;;4.68;;
23561;SDS011;11959;49.418;8.728;2023-04-23T08:11:25;6.32;;;4.35;;
23561;SDS011;11959;49.418;8.728;2023-04-23T08:13:53;5.95;;;4.25;;
23561;SDS011;11959;49.418;8.728;2023-04-23T08:16:19;6.03;;;4.20;;
23561;SDS011;11959;49.418;8.728;2023-04-23T08:18:44;4.72;;;3.67;;
23561;SDS011;11959;49.418;8.728;2023-04-23T08:21:10;5.55;;;3.83;;
23561;SDS011;11959;49.418;8.728;2023-04-23T08:23:37;4.65;;;3.60;;
23561;SDS011;11959;49.418;8.728;2023-04-23T08:26:02;5.22;;;3.90;;
23561;SDS011;11959;49.418;8.728;2023-04-23T08:28:28;4.70;;;3.60;;
23561;SDS011;11959;49.418;8.728;2023-04-23T08:30:54;4.93;;;3.60;;
23561;SDS011;11959;49.418;8.728;2023-04-23T08:33:20;3.70;;;3.15;;
23561;SDS011;11959;49.418;8.728;2023-04-23T08:35:46;4.63;;;3.25;;
23561;SDS011;11959;49.418;8.728;2023-04-23T08:38:12;4.38;;;3.13;;
23561;SDS011;11959;49.418;8.728;2023-04-23T08:40:38;5.45;;;3.17;;
23561;SDS011;11959;49.418;8.728;2023-04-23T08:43:16;4.72;;;2.80;;
23561;SDS011;11959;49.418;8.728;2023-04-23T08:45:45;5.03;;;3.10;;
23561;SDS011;11959;49.418;8.728;2023-04-23T08:48:12;3.55;;;2.55;;
23561;SDS011;11959;49.418;8.728;2023-04-23T08:50:41;5.07;;;2.90;;
23561;SDS011;11959;49.418;8.728;2023-04-23T08:53:07;5.13;;;3.08;;
23561;SDS011;11959;49.418;8.728;2023-04-23T08:55:33;3.53;;;2.78;;
23561;SDS011;11959;49.418;8.728;2023-04-23T08:58:00;3.40;;;3.10;;
23561;SDS011;11959;49.418;8.728;2023-04-23T09:00:27;3.33;;;2.83;;
23561;SDS011;11959;49.418;8.728;2023-04-23T09:02:54;4.05;;;3.03;;
23561;SDS011;11959;49.418;8.728;2023-04-23T09:05:20;6.82;;;3.15;;
23561;SDS011;11959;49.418;8.728;2023-04-23T09:07:46;4.72;;;3.00;;
23561;SDS011;11959;49.418;8.728;2023-04-23T09:10:12;3.30;;;2.70;;
23561;SDS011;11959;49.418;8.728;2023-04-23T09:12:39;4.18;;;2.58;;
23561;SDS011;11959;49.418;8.728;2023-04-23T09:15:06;4.57;;;2.70;;
23561;SDS011;11959;49.418;8.728;2023-04-23T09:17:35;3.97;;;2.47;;
23561;SDS011;11959;49.418;8.728;2023-04-23T09:20:03;3.65;;;2.17;;
23561;SDS011;11959;49.418;8.728;2023-04-23T09:25:23;2.80;;;2.50;;
23561;SDS011;11959;49.418;8.728;2023-04-23T09:27:50;3.88;;;2.67;;
23561;SDS011;11959;49.418;8.728;2023-04-23T09:30:17;2.88;;;2.45;;
23561;SDS011;11959;49.418;8.728;2023-04-23T09:32:44;3.95;;;2.85;;
23561;SDS011;11959;49.418;8.728;2023-04-23T09:35:14;7.00;;;2.72;;
23561;SDS011;11959;49.418;8.728;2023-04-23T09:37:42;3.20;;;2.83;;
23561;SDS011;11959;49.418;8.728;2023-04-23T09:40:12;3.10;;;2.60;;
23561;SDS011;11959;49.418;8.728;2023-04-23T09:42:39;3.00;;;2.55;;
23561;SDS011;11959;49.418;8.728;2023-04-23T09:45:05;5.03;;;2.90;;
23561;SDS011;11959;49.418;8.728;2023-04-23T09:47:33;4.13;;;3.00;;
23561;SDS011;11959;49.418;8.728;2023-04-23T09:50:02;4.90;;;2.97;;
23561;SDS011;11959;49.418;8.728;2023-04-23T09:52:33;3.90;;;2.63;;
23561;SDS011;11959;49.418;8.728;2023-04-23T09:55:03;3.78;;;2.90;;
23561;SDS011;11959;49.418;8.728;2023-04-23T09:57:29;3.88;;;2.90;;
23561;SDS011;11959;49.418;8.728;2023-04-23T10:00:06;4.88;;;2.60;;
23561;SDS011;11959;49.418;8.728;2023-04-23T10:02:39;4.78;;;2.90;;
23561;SDS011;11959;49.418;8.728;2023-04-23T10:05:14;4.20;;;2.97;;
23561;SDS011;11959;49.418;8.728;2023-04-23T10:07:44;3.28;;;2.80;;
23561;SDS011;11959;49.418;8.728;2023-04-23T10:10:11;4.22;;;2.83;;
23561;SDS011;11959;49.418;8.728;2023-04-23T10:12:37;4.10;;;2.85;;
23561;SDS011;11959;49.418;8.728;2023-04-23T10:15:03;3.17;;;2.58;;
23561;SDS011;11959;49.418;8.728;2023-04-23T10:17:30;4.38;;;2.47;;
23561;SDS011;11959;49.418;8.728;2023-04-23T10:19:57;2.50;;;2.30;;
23561;SDS011;11959;49.418;8.728;2023-04-23T10:22:25;3.05;;;2.40;;
23561;SDS011;11959;49.418;8.728;2023-04-23T10:24:53;3.92;;;3.05;;
23561;SDS011;11959;49.418;8.728;2023-04-23T10:27:25;3.95;;;2.60;;
23561;SDS011;11959;49.418;8.728;2023-04-23T10:29:58;5.13;;;2.35;;
23561;SDS011;11959;49.418;8.728;2023-04-23T10:32:25;2.55;;;2.10;;
23561;SDS011;11959;49.418;8.728;2023-04-23T10:34:51;2.50;;;2.20;;
23561;SDS011;11959;49.418;8.728;2023-04-23T10:37:18;3.28;;;2.30;;
23561;SDS011;11959;49.418;8.728;2023-04-23T10:39:45;3.30;;;2.45;;
23561;SDS011;11959;49.418;8.728;2023-04-23T10:42:20;2.38;;;2.17;;
23561;SDS011;11959;49.418;8.728;2023-04-23T10:44:46;2.70;;;2.13;;
23561;SDS011;11959;49.418;8.728;2023-04-23T10:47:15;4.28;;;2.42;;
23561;SDS011;11959;49.418;8.728;2023-04-23T10:49:41;4.38;;;2.08;;
23561;SDS011;11959;49.418;8.728;2023-04-23T10:52:12;2.40;;;2.00;;
23561;SDS011;11959;49.418;8.728;2023-04-23T10:54:42;2.28;;;2.00;;
23561;SDS011;11959;49.418;8.728;2023-04-23T10:57:13;3.67;;;1.70;;
23561;SDS011;11959;49.418;8.728;2023-04-23T10:59:40;3.60;;;1.75;;
23561;SDS011;11959;49.418;8.728;2023-04-23T11:02:15;2.15;;;1.33;;
23561;SDS011;11959;49.418;8.728;2023-04-23T11:04:45;2.97;;;1.65;;
23561;SDS011;11959;49.418;8.728;2023-04-23T11:07:17;3.05;;;1.70;;
23561;SDS011;11959;49.418;8.728;2023-04-23T11:09:47;5.30;;;1.88;;
23561;SDS011;11959;49.418;8.728;2023-04-23T11:14:54;2.25;;;1.70;;
23561;SDS011;11959;49.418;8.728;2023-04-23T11:17:58;2.03;;;1.60;;
23561;SDS011;11959;49.418;8.728;2023-04-23T11:22:38;2.92;;;1.70;;
23561;SDS011;11959;49.418;8.728;2023-04-23T11:25:12;3.75;;;1.52;;
23561;SDS011;11959;49.418;8.728;2023-04-23T11:27:43;2.45;;;1.60;;
23561;SDS011;11959;49.418;8.728;2023-04-23T11:30:13;2.15;;;1.60;;
23561;SDS011;11959;49.418;8.728;2023-04-23T11:32:49;2.13;;;1.48;;
23561;SDS011;11959;49.418;8.728;2023-04-23T11:35:16;3.80;;;1.90;;
23561;SDS011;11959;49.418;8.728;2023-04-23T11:37:43;1.50;;;1.30;;
23561;SDS011;11959;49.418;8.728;2023-04-23T11:40:10;2.33;;;1.42;;
23561;SDS011;11959;49.418;8.728;2023-04-23T11:42:45;4.22;;;1.50;;
23561;SDS011;11959;49.418;8.728;2023-04-23T11:47:44;1.83;;;1.27;;
23561;SDS011;11959;49.418;8.728;2023-04-23T11:50:18;1.95;;;1.30;;
23561;SDS011;11959;49.418;8.728;2023-04-23T11:52:44;1.63;;;1.30;;
23561;SDS011;11959;49.418;8.728;2023-04-23T11:55:10;2.75;;;1.30;;
23561;SDS011;11959;49.418;8.728;2023-04-23T11:57:44;1.73;;;1.23;;
23561;SDS011;11959;49.418;8.728;2023-04-23T12:00:18;2.03;;;1.23;;
23561;SDS011;11959;49.418;8.728;2023-04-23T12:05:29;1.98;;;1.30;;
23561;SDS011;11959;49.418;8.728;2023-04-23T12:08:15;2.08;;;1.30;;
23561;SDS011;11959;49.418;8.728;2023-04-23T12:10:49;2.10;;;1.20;;
23561;SDS011;11959;49.418;8.728;2023-04-23T12:13:20;1.40;;;1.23;;
23561;SDS011;11959;49.418;8.728;2023-04-23T12:15:48;2.33;;;1.10;;
23561;SDS011;11959;49.418;8.728;2023-04-23T12:18:16;2.17;;;1.08;;
23561;SDS011;11959;49.418;8.728;2023-04-23T12:20:43;2.03;;;1.15;;
23561;SDS011;11959;49.418;8.728;2023-04-23T12:23:09;2.97;;;1.20;;
23561;SDS011;11959;49.418;8.728;2023-04-23T12:25:34;2.38;;;1.38;;
23561;SDS011;11959;49.418;8.728;2023-04-23T12:28:01;2.17;;;0.98;;
23561;SDS011;11959;49.418;8.728;2023-04-23T12:30:31;1.42;;;1.33;;
23561;SDS011;11959;49.418;8.728;2023-04-23T12:33:01;1.35;;;0.90;;
23561;SDS011;11959;49.418;8.728;2023-04-23T12:35:51;1.17;;;1.00;;
23561;SDS011;11959;49.418;8.728;2023-04-23T12:38:21;1.80;;;1.17;;
23561;SDS011;11959;49.418;8.728;2023-04-23T12:40:50;2.85;;;1.30;;
23561;SDS011;11959;49.418;8.728;2023-04-23T12:43:20;2.17;;;1.00;;
23561;SDS011;11959;49.418;8.728;2023-04-23T12:45:46;1.52;;;1.10;;
23561;SDS011;11959;49.418;8.728;2023-04-23T12:48:12;2.55;;;1.27;;
23561;SDS011;11959;49.418;8.728;2023-04-23T12:50:38;1.42;;;1.13;;
23561;SDS011;11959;49.418;8.728;2023-04-23T12:53:05;3.03;;;1.40;;
23561;SDS011;11959;49.418;8.728;2023-04-23T12:55:31;1.60;;;1.10;;
23561;SDS011;11959;49.418;8.728;2023-04-23T12:57:57;1.73;;;1.35;;
23561;SDS011;11959;49.418;8.728;2023-04-23T13:00:23;1.92;;;1.30;;
23561;SDS011;11959;49.418;8.728;2023-04-23T13:02:49;2.75;;;1.50;;
23561;SDS011;11959;49.418;8.728;2023-04-23T13:05:15;2.20;;;1.20;;
23561;SDS011;11959;49.418;8.728;2023-04-23T13:07:41;1.90;;;1.40;;
23561;SDS011;11959;49.418;8.728;2023-04-23T13:10:07;2.08;;;1.38;;
23561;SDS011;11959;49.418;8.728;2023-04-23T13:12:34;1.83;;;1.40;;
23561;SDS011;11959;49.418;8.728;2023-04-23T13:14:59;1.90;;;1.50;;
23561;SDS011;11959;49.418;8.728;2023-04-23T13:17:25;2.42;;;1.50;;
23561;SDS011;11959;49.418;8.728;2023-04-23T13:19:51;2.25;;;1.35;;
23561;SDS011;11959;49.418;8.728;2023-04-23T13:22:18;3.33;;;1.45;;
23561;SDS011;11959;49.418;8.728;2023-04-23T13:24:43;3.22;;;1.30;;
23561;SDS011;11959;49.418;8.728;2023-04-23T13:27:09;2.10;;;1.20;;
23561;SDS011;11959;49.418;8.728;2023-04-23T13:29:35;1.08;;;0.93;;
23561;SDS011;11959;49.418;8.728;2023-04-23T13:32:01;3.00;;;2.00;;
23561;SDS011;11959;49.418;8.728;2023-04-23T13:34:27;3.25;;;1.30;;
23561;SDS011;11959;49.418;8.728;2023-04-23T13:36:52;1.25;;;0.95;;
23561;SDS011;11959;49.418;8.728;2023-04-23T13:39:18;2.03;;;1.10;;
23561;SDS011;11959;49.418;8.728;2023-04-23T13:41:45;2.20;;;1.10;;
23561;SDS011;11959;49.418;8.728;2023-04-23T13:44:11;1.30;;;1.00;;
23561;SDS011;11959;49.418;8.728;2023-04-23T13:46:37;1.98;;;1.20;;
23561;SDS011;11959;49.418;8.728;2023-04-23T13:49:04;1.20;;;1.10;;
23561;SDS011;11959;49.418;8.728;2023-04-23T13:51:30;2.35;;;1.30;;
23561;SDS011;11959;49.418;8.728;2023-04-23T13:53:55;1.98;;;1.10;;
23561;SDS011;11959;49.418;8.728;2023-04-23T13:56:22;2.30;;;1.20;;
23561;SDS011;11959;49.418;8.728;2023-04-23T13:58:48;1.85;;;1.17;;
23561;SDS011;11959;49.418;8.728;2023-04-23T14:01:17;1.42;;;1.20;;
23561;SDS011;11959;49.418;8.728;2023-04-23T14:03:43;2.05;;;1.02;;
23561;SDS011;11959;49.418;8.728;2023-04-23T14:06:09;1.90;;;1.25;;
23561;SDS011;11959;49.418;8.728;2023-04-23T14:08:34;1.33;;;1.02;;
23561;SDS011;11959;49.418;8.728;2023-04-23T14:11:01;2.75;;;1.20;;
23561;SDS011;11959;49.418;8.728;2023-04-23T14:13:29;2.78;;;1.55;;
23561;SDS011;11959;49.418;8.728;2023-04-23T14:15:55;1.80;;;1.00;;
23561;SDS011;11959;49.418;8.728;2023-04-23T14:18:21;2.45;;;1.38;;
23561;SDS011;11959;49.418;8.728;2023-04-23T14:20:47;1.50;;;1.10;;
23561;SDS011;11959;49.418;8.728;2023-04-23T14:25:51;1.45;;;1.05;;
23561;SDS011;11959;49.418;8.728;2023-04-23T14:31:03;1.98;;;1.30;;
23561;SDS011;11959;49.418;8.728;2023-04-23T14:33:29;1.42;;;1.33;;
23561;SDS011;11959;49.418;8.728;2023-04-23T14:35:55;1.98;;;1.10;;
23561;SDS011;11959;49.418;8.728;2023-04-23T14:38:21;1.63;;;1.10;;
23561;SDS011;11959;49.418;8.728;2023-04-23T14:40:47;1.75;;;1.10;;
23561;SDS011;11959;49.418;8.728;2023-04-23T14:43:12;1.13;;;1.00;;
23561;SDS011;11959;49.418;8.728;2023-04-23T14:45:38;1.52;;;0.80;;
23561;SDS011;11959;49.418;8.728;2023-04-23T14:48:04;1.80;;;1.33;;
23561;SDS011;11959;49.418;8.728;2023-04-23T14:50:29;2.45;;;1.30;;
23561;SDS011;11959;49.418;8.728;2023-04-23T14:52:55;1.05;;;0.98;;
23561;SDS011;11959;49.418;8.728;2023-04-23T14:55:22;1.00;;;0.90;;
23561;SDS011;11959;49.418;8.728;2023-04-23T14:57:48;1.38;;;1.10;;
23561;SDS011;11959;49.418;8.728;2023-04-23T15:00:15;1.55;;;1.10;;
23561;SDS011;11959;49.418;8.728;2023-04-23T15:02:41;1.20;;;1.02;;
23561;SDS011;11959;49.418;8.728;2023-04-23T15:05:11;2.17;;;0.93;;